Terminal Aerodrome Forecast
Issued by NWS Dodge City, KS

Home | Current Version | Previous Version | Graphics & Text | Print | Product List | Glossary Off
Versions: 1 2 3 4 5 6 7 8 9 10 11 12 13 14 15 16 17 18 19 20 21 22 23 24 25 26 27 28 29 30 31 32 33 34

000
FTUS43 KDDC 281120
TAFDDC
TAF
KDDC 281120Z 2812/2912 30007KT P6SM BKN120
     FM282200 34010KT P6SM VCSH BKN110
     FM290400 02016KT 6SM RA OVC020
     FM290600 02017G27KT 4SM -RA BR OVC008=

USA.gov is the U.S. government's official web portal to all federal, state and local government web resources and services.